sensor_id;sensor_type;location;lat;lon;timestamp;P1;durP1;ratioP1;P2;durP2;ratioP2
82304;SDS011;71914;47.382;8.168;2024-03-02T00:00:20;13.10;;;8.18;;
82304;SDS011;71914;47.382;8.168;2024-03-02T00:02:47;10.70;;;6.15;;
82304;SDS011;71914;47.382;8.168;2024-03-02T00:05:15;14.15;;;6.38;;
82304;SDS011;71914;47.382;8.168;2024-03-02T00:07:43;12.52;;;7.55;;
82304;SDS011;71914;47.382;8.168;2024-03-02T00:10:10;13.57;;;7.18;;
82304;SDS011;71914;47.382;8.168;2024-03-02T00:12:37;18.35;;;7.60;;
82304;SDS011;71914;47.382;8.168;2024-03-02T00:15:04;15.52;;;8.25;;
82304;SDS011;71914;47.382;8.168;2024-03-02T00:17:32;11.60;;;7.65;;
82304;SDS011;71914;47.382;8.168;2024-03-02T00:19:58;13.70;;;7.90;;
82304;SDS011;71914;47.382;8.168;2024-03-02T00:22:23;17.75;;;7.53;;
82304;SDS011;71914;47.382;8.168;2024-03-02T00:24:50;16.50;;;8.38;;
82304;SDS011;71914;47.382;8.168;2024-03-02T00:27:16;18.95;;;8.73;;
82304;SDS011;71914;47.382;8.168;2024-03-02T00:29:44;17.30;;;6.68;;
82304;SDS011;71914;47.382;8.168;2024-03-02T00:32:10;12.80;;;7.80;;
82304;SDS011;71914;47.382;8.168;2024-03-02T00:34:38;13.77;;;7.43;;
82304;SDS011;71914;47.382;8.168;2024-03-02T00:37:04;15.73;;;8.38;;
82304;SDS011;71914;47.382;8.168;2024-03-02T00:39:30;17.98;;;9.27;;
82304;SDS011;71914;47.382;8.168;2024-03-02T00:41:58;15.18;;;8.23;;
82304;SDS011;71914;47.382;8.168;2024-03-02T00:46:51;16.88;;;8.90;;
82304;SDS011;71914;47.382;8.168;2024-03-02T00:51:46;32.65;;;9.27;;
82304;SDS011;71914;47.382;8.168;2024-03-02T00:54:14;37.85;;;10.65;;
82304;SDS011;71914;47.382;8.168;2024-03-02T00:56:40;20.80;;;7.78;;
82304;SDS011;71914;47.382;8.168;2024-03-02T00:59:09;26.55;;;9.95;;
82304;SDS011;71914;47.382;8.168;2024-03-02T01:01:35;33.22;;;10.73;;
82304;SDS011;71914;47.382;8.168;2024-03-02T01:04:01;46.92;;;10.63;;
82304;SDS011;71914;47.382;8.168;2024-03-02T01:06:27;43.25;;;10.77;;
82304;SDS011;71914;47.382;8.168;2024-03-02T01:08:52;33.88;;;9.13;;
82304;SDS011;71914;47.382;8.168;2024-03-02T01:11:18;31.10;;;9.60;;
82304;SDS011;71914;47.382;8.168;2024-03-02T01:13:47;42.55;;;10.20;;
82304;SDS011;71914;47.382;8.168;2024-03-02T01:16:14;25.65;;;9.57;;
82304;SDS011;71914;47.382;8.168;2024-03-02T01:18:40;22.27;;;9.07;;
82304;SDS011;71914;47.382;8.168;2024-03-02T01:21:06;21.10;;;9.68;;
82304;SDS011;71914;47.382;8.168;2024-03-02T01:23:32;16.75;;;8.65;;
82304;SDS011;71914;47.382;8.168;2024-03-02T01:25:58;14.27;;;8.18;;
82304;SDS011;71914;47.382;8.168;2024-03-02T01:28:23;24.17;;;10.23;;
82304;SDS011;71914;47.382;8.168;2024-03-02T01:30:49;27.20;;;10.15;;
82304;SDS011;71914;47.382;8.168;2024-03-02T01:33:16;19.42;;;9.10;;
82304;SDS011;71914;47.382;8.168;2024-03-02T01:35:43;20.92;;;9.45;;
82304;SDS011;71914;47.382;8.168;2024-03-02T01:38:08;21.35;;;8.65;;
82304;SDS011;71914;47.382;8.168;2024-03-02T01:40:34;20.13;;;8.88;;
82304;SDS011;71914;47.382;8.168;2024-03-02T01:43:00;16.38;;;8.10;;
82304;SDS011;71914;47.382;8.168;2024-03-02T01:45:25;26.52;;;8.65;;
82304;SDS011;71914;47.382;8.168;2024-03-02T01:47:51;22.23;;;8.40;;
82304;SDS011;71914;47.382;8.168;2024-03-02T01:50:25;31.48;;;8.48;;
82304;SDS011;71914;47.382;8.168;2024-03-02T01:52:52;26.25;;;7.88;;
82304;SDS011;71914;47.382;8.168;2024-03-02T01:55:18;14.90;;;6.85;;
82304;SDS011;71914;47.382;8.168;2024-03-02T01:57:44;17.45;;;7.28;;
82304;SDS011;71914;47.382;8.168;2024-03-02T02:00:10;22.25;;;6.85;;
82304;SDS011;71914;47.382;8.168;2024-03-02T02:02:37;42.15;;;8.13;;
82304;SDS011;71914;47.382;8.168;2024-03-02T02:05:03;26.25;;;7.05;;
82304;SDS011;71914;47.382;8.168;2024-03-02T02:07:30;10.95;;;5.85;;
82304;SDS011;71914;47.382;8.168;2024-03-02T02:09:56;13.80;;;6.95;;
82304;SDS011;71914;47.382;8.168;2024-03-02T02:12:22;22.08;;;6.75;;
82304;SDS011;71914;47.382;8.168;2024-03-02T02:14:47;31.27;;;8.82;;
82304;SDS011;71914;47.382;8.168;2024-03-02T02:17:16;25.13;;;8.35;;
82304;SDS011;71914;47.382;8.168;2024-03-02T02:19:42;23.75;;;7.97;;
82304;SDS011;71914;47.382;8.168;2024-03-02T02:22:09;21.67;;;8.43;;
82304;SDS011;71914;47.382;8.168;2024-03-02T02:27:00;19.63;;;6.60;;
82304;SDS011;71914;47.382;8.168;2024-03-02T02:29:26;19.77;;;7.35;;
82304;SDS011;71914;47.382;8.168;2024-03-02T02:31:52;28.40;;;9.05;;
82304;SDS011;71914;47.382;8.168;2024-03-02T02:34:17;23.52;;;8.55;;
82304;SDS011;71914;47.382;8.168;2024-03-02T02:36:43;21.77;;;7.72;;
82304;SDS011;71914;47.382;8.168;2024-03-02T02:39:11;17.27;;;8.32;;
82304;SDS011;71914;47.382;8.168;2024-03-02T02:41:40;18.55;;;8.27;;
82304;SDS011;71914;47.382;8.168;2024-03-02T02:44:06;19.20;;;6.93;;
82304;SDS011;71914;47.382;8.168;2024-03-02T02:46:32;27.30;;;7.82;;
82304;SDS011;71914;47.382;8.168;2024-03-02T02:48:57;21.17;;;7.20;;
82304;SDS011;71914;47.382;8.168;2024-03-02T02:51:23;13.82;;;6.25;;
82304;SDS011;71914;47.382;8.168;2024-03-02T02:53:50;14.70;;;7.47;;
82304;SDS011;71914;47.382;8.168;2024-03-02T02:56:17;24.60;;;7.97;;
82304;SDS011;71914;47.382;8.168;2024-03-02T02:58:43;20.17;;;7.05;;
82304;SDS011;71914;47.382;8.168;2024-03-02T03:01:08;11.43;;;7.53;;
82304;SDS011;71914;47.382;8.168;2024-03-02T03:03:34;20.13;;;8.00;;
82304;SDS011;71914;47.382;8.168;2024-03-02T03:06:00;15.75;;;7.07;;
82304;SDS011;71914;47.382;8.168;2024-03-02T03:08:26;12.43;;;6.50;;
82304;SDS011;71914;47.382;8.168;2024-03-02T03:10:52;14.52;;;7.53;;
82304;SDS011;71914;47.382;8.168;2024-03-02T03:13:19;15.30;;;7.25;;
82304;SDS011;71914;47.382;8.168;2024-03-02T03:15:45;16.73;;;8.13;;
82304;SDS011;71914;47.382;8.168;2024-03-02T03:18:11;13.68;;;6.72;;
82304;SDS011;71914;47.382;8.168;2024-03-02T03:20:36;19.90;;;6.78;;
82304;SDS011;71914;47.382;8.168;2024-03-02T03:23:02;14.88;;;5.90;;
82304;SDS011;71914;47.382;8.168;2024-03-02T03:25:29;8.23;;;4.97;;
82304;SDS011;71914;47.382;8.168;2024-03-02T03:27:54;18.92;;;5.50;;
82304;SDS011;71914;47.382;8.168;2024-03-02T03:30:21;13.93;;;6.30;;
82304;SDS011;71914;47.382;8.168;2024-03-02T03:32:47;13.20;;;6.72;;
82304;SDS011;71914;47.382;8.168;2024-03-02T03:35:15;18.52;;;6.95;;
82304;SDS011;71914;47.382;8.168;2024-03-02T03:37:41;15.18;;;7.45;;
82304;SDS011;71914;47.382;8.168;2024-03-02T03:40:07;11.32;;;6.68;;
82304;SDS011;71914;47.382;8.168;2024-03-02T03:42:35;17.73;;;7.30;;
82304;SDS011;71914;47.382;8.168;2024-03-02T03:45:01;16.13;;;6.65;;
82304;SDS011;71914;47.382;8.168;2024-03-02T03:47:28;12.43;;;6.43;;
82304;SDS011;71914;47.382;8.168;2024-03-02T03:49:54;8.85;;;5.38;;
82304;SDS011;71914;47.382;8.168;2024-03-02T03:52:19;9.07;;;5.97;;
82304;SDS011;71914;47.382;8.168;2024-03-02T03:54:46;9.15;;;5.05;;
82304;SDS011;71914;47.382;8.168;2024-03-02T03:57:12;9.60;;;5.10;;
82304;SDS011;71914;47.382;8.168;2024-03-02T03:59:37;11.20;;;6.10;;
82304;SDS011;71914;47.382;8.168;2024-03-02T04:02:03;9.38;;;6.00;;
82304;SDS011;71914;47.382;8.168;2024-03-02T04:04:30;10.15;;;6.32;;
82304;SDS011;71914;47.382;8.168;2024-03-02T04:09:21;10.52;;;5.07;;
82304;SDS011;71914;47.382;8.168;2024-03-02T04:11:47;11.77;;;6.20;;
82304;SDS011;71914;47.382;8.168;2024-03-02T04:14:13;8.88;;;4.63;;
82304;SDS011;71914;47.382;8.168;2024-03-02T04:16:38;12.82;;;5.95;;
82304;SDS011;71914;47.382;8.168;2024-03-02T04:19:04;11.73;;;6.10;;
82304;SDS011;71914;47.382;8.168;2024-03-02T04:21:31;11.15;;;7.43;;
82304;SDS011;71914;47.382;8.168;2024-03-02T04:23:57;14.52;;;6.22;;
82304;SDS011;71914;47.382;8.168;2024-03-02T04:26:24;8.68;;;5.65;;
82304;SDS011;71914;47.382;8.168;2024-03-02T04:28:50;10.63;;;6.53;;
82304;SDS011;71914;47.382;8.168;2024-03-02T04:31:16;11.77;;;6.22;;
82304;SDS011;71914;47.382;8.168;2024-03-02T04:33:42;15.80;;;7.20;;
82304;SDS011;71914;47.382;8.168;2024-03-02T04:36:07;20.58;;;6.80;;
82304;SDS011;71914;47.382;8.168;2024-03-02T04:41:01;8.90;;;5.28;;
82304;SDS011;71914;47.382;8.168;2024-03-02T04:43:27;12.95;;;5.53;;
82304;SDS011;71914;47.382;8.168;2024-03-02T04:45:52;14.80;;;5.95;;
82304;SDS011;71914;47.382;8.168;2024-03-02T04:48:18;8.90;;;4.97;;
82304;SDS011;71914;47.382;8.168;2024-03-02T04:50:44;15.10;;;5.78;;
82304;SDS011;71914;47.382;8.168;2024-03-02T04:53:10;11.05;;;6.07;;
82304;SDS011;71914;47.382;8.168;2024-03-02T04:55:37;14.85;;;6.40;;
82304;SDS011;71914;47.382;8.168;2024-03-02T04:58:05;11.40;;;5.20;;
82304;SDS011;71914;47.382;8.168;2024-03-02T05:00:34;11.75;;;5.05;;
82304;SDS011;71914;47.382;8.168;2024-03-02T05:03:00;11.63;;;4.93;;
82304;SDS011;71914;47.382;8.168;2024-03-02T05:05:26;12.68;;;5.55;;
82304;SDS011;71914;47.382;8.168;2024-03-02T05:07:51;16.23;;;5.55;;
82304;SDS011;71914;47.382;8.168;2024-03-02T05:10:17;11.63;;;5.47;;
82304;SDS011;71914;47.382;8.168;2024-03-02T05:12:44;10.43;;;5.95;;
82304;SDS011;71914;47.382;8.168;2024-03-02T05:17:36;13.57;;;5.90;;
82304;SDS011;71914;47.382;8.168;2024-03-02T05:20:01;10.10;;;5.25;;
82304;SDS011;71914;47.382;8.168;2024-03-02T05:22:28;10.48;;;6.28;;
82304;SDS011;71914;47.382;8.168;2024-03-02T05:24:54;9.35;;;5.60;;
82304;SDS011;71914;47.382;8.168;2024-03-02T05:27:19;14.05;;;6.60;;
82304;SDS011;71914;47.382;8.168;2024-03-02T05:29:46;15.18;;;8.55;;
82304;SDS011;71914;47.382;8.168;2024-03-02T05:32:12;14.80;;;6.18;;
82304;SDS011;71914;47.382;8.168;2024-03-02T05:34:37;13.73;;;6.40;;
82304;SDS011;71914;47.382;8.168;2024-03-02T05:37:03;11.88;;;6.15;;
82304;SDS011;71914;47.382;8.168;2024-03-02T05:39:29;15.98;;;6.55;;
82304;SDS011;71914;47.382;8.168;2024-03-02T05:41:54;8.68;;;5.13;;
82304;SDS011;71914;47.382;8.168;2024-03-02T05:44:20;10.32;;;6.00;;
82304;SDS011;71914;47.382;8.168;2024-03-02T05:46:48;11.20;;;5.70;;
82304;SDS011;71914;47.382;8.168;2024-03-02T05:49:14;15.95;;;7.70;;
82304;SDS011;71914;47.382;8.168;2024-03-02T05:51:40;14.05;;;7.20;;
82304;SDS011;71914;47.382;8.168;2024-03-02T05:54:06;15.30;;;7.60;;
82304;SDS011;71914;47.382;8.168;2024-03-02T05:56:32;14.50;;;7.10;;
82304;SDS011;71914;47.382;8.168;2024-03-02T05:58:58;16.85;;;7.00;;
82304;SDS011;71914;47.382;8.168;2024-03-02T06:01:42;11.57;;;6.30;;
82304;SDS011;71914;47.382;8.168;2024-03-02T06:04:10;12.25;;;6.57;;
82304;SDS011;71914;47.382;8.168;2024-03-02T06:09:01;10.85;;;5.22;;
82304;SDS011;71914;47.382;8.168;2024-03-02T06:11:30;6.97;;;3.65;;
82304;SDS011;71914;47.382;8.168;2024-03-02T06:13:56;8.52;;;5.00;;
82304;SDS011;71914;47.382;8.168;2024-03-02T06:16:21;7.88;;;4.68;;
82304;SDS011;71914;47.382;8.168;2024-03-02T06:18:47;9.10;;;5.05;;
82304;SDS011;71914;47.382;8.168;2024-03-02T06:21:14;10.95;;;5.32;;
82304;SDS011;71914;47.382;8.168;2024-03-02T06:23:40;16.40;;;6.95;;
82304;SDS011;71914;47.382;8.168;2024-03-02T06:26:05;15.15;;;7.70;;
82304;SDS011;71914;47.382;8.168;2024-03-02T06:28:31;24.70;;;8.50;;
82304;SDS011;71914;47.382;8.168;2024-03-02T06:30:57;16.10;;;7.65;;
82304;SDS011;71914;47.382;8.168;2024-03-02T06:33:23;24.23;;;7.65;;
82304;SDS011;71914;47.382;8.168;2024-03-02T06:35:48;9.20;;;5.35;;
82304;SDS011;71914;47.382;8.168;2024-03-02T06:38:16;21.55;;;6.80;;
82304;SDS011;71914;47.382;8.168;2024-03-02T06:43:07;8.68;;;5.05;;
82304;SDS011;71914;47.382;8.168;2024-03-02T06:45:32;18.95;;;6.18;;
82304;SDS011;71914;47.382;8.168;2024-03-02T06:47:59;29.67;;;7.38;;
82304;SDS011;71914;47.382;8.168;2024-03-02T06:50:25;15.93;;;7.10;;
82304;SDS011;71914;47.382;8.168;2024-03-02T06:52:50;68.72;;;11.95;;
82304;SDS011;71914;47.382;8.168;2024-03-02T06:55:18;17.35;;;9.35;;
82304;SDS011;71914;47.382;8.168;2024-03-02T06:57:43;24.73;;;9.70;;
82304;SDS011;71914;47.382;8.168;2024-03-02T07:00:09;25.00;;;10.00;;
82304;SDS011;71914;47.382;8.168;2024-03-02T07:02:36;12.75;;;6.90;;
82304;SDS011;71914;47.382;8.168;2024-03-02T07:05:02;25.98;;;8.77;;
82304;SDS011;71914;47.382;8.168;2024-03-02T07:07:28;16.27;;;7.93;;
82304;SDS011;71914;47.382;8.168;2024-03-02T07:09:54;20.38;;;8.18;;
82304;SDS011;71914;47.382;8.168;2024-03-02T07:12:21;15.38;;;7.05;;
82304;SDS011;71914;47.382;8.168;2024-03-02T07:14:46;19.42;;;7.53;;
82304;SDS011;71914;47.382;8.168;2024-03-02T07:17:27;31.27;;;10.00;;
82304;SDS011;71914;47.382;8.168;2024-03-02T07:19:53;24.85;;;8.00;;
82304;SDS011;71914;47.382;8.168;2024-03-02T07:22:18;24.90;;;7.25;;
82304;SDS011;71914;47.382;8.168;2024-03-02T07:24:44;25.25;;;9.80;;
82304;SDS011;71914;47.382;8.168;2024-03-02T07:27:11;12.52;;;6.82;;
82304;SDS011;71914;47.382;8.168;2024-03-02T07:29:38;22.25;;;8.07;;
82304;SDS011;71914;47.382;8.168;2024-03-02T07:32:05;11.95;;;7.28;;
82304;SDS011;71914;47.382;8.168;2024-03-02T07:34:31;10.73;;;5.95;;
82304;SDS011;71914;47.382;8.168;2024-03-02T07:36:57;25.45;;;9.38;;
82304;SDS011;71914;47.382;8.168;2024-03-02T07:39:22;27.13;;;10.57;;
82304;SDS011;71914;47.382;8.168;2024-03-02T07:41:48;24.83;;;10.63;;
82304;SDS011;71914;47.382;8.168;2024-03-02T07:44:14;36.40;;;11.40;;
82304;SDS011;71914;47.382;8.168;2024-03-02T07:46:41;25.17;;;8.38;;
82304;SDS011;71914;47.382;8.168;2024-03-02T07:49:07;12.82;;;7.90;;
82304;SDS011;71914;47.382;8.168;2024-03-02T07:51:33;20.10;;;7.63;;
82304;SDS011;71914;47.382;8.168;2024-03-02T07:53:59;20.52;;;8.60;;
82304;SDS011;71914;47.382;8.168;2024-03-02T07:56:24;15.07;;;7.32;;
82304;SDS011;71914;47.382;8.168;2024-03-02T07:58:50;23.65;;;6.95;;
82304;SDS011;71914;47.382;8.168;2024-03-02T08:01:16;18.52;;;7.97;;
82304;SDS011;71914;47.382;8.168;2024-03-02T08:03:43;26.27;;;9.48;;
82304;SDS011;71914;47.382;8.168;2024-03-02T08:06:13;20.25;;;9.88;;
82304;SDS011;71914;47.382;8.168;2024-03-02T08:08:39;16.25;;;9.25;;
82304;SDS011;71914;47.382;8.168;2024-03-02T08:11:05;14.40;;;7.95;;
82304;SDS011;71914;47.382;8.168;2024-03-02T08:13:31;14.82;;;7.70;;
82304;SDS011;71914;47.382;8.168;2024-03-02T08:15:56;19.98;;;8.65;;
82304;SDS011;71914;47.382;8.168;2024-03-02T08:18:22;17.60;;;7.32;;
82304;SDS011;71914;47.382;8.168;2024-03-02T08:20:50;15.18;;;8.43;;
82304;SDS011;71914;47.382;8.168;2024-03-02T08:23:15;24.02;;;8.65;;
82304;SDS011;71914;47.382;8.168;2024-03-02T08:25:41;23.35;;;10.40;;
82304;SDS011;71914;47.382;8.168;2024-03-02T08:28:07;26.20;;;11.35;;
82304;SDS011;71914;47.382;8.168;2024-03-02T08:30:33;17.90;;;10.18;;
82304;SDS011;71914;47.382;8.168;2024-03-02T08:32:59;17.20;;;7.82;;
82304;SDS011;71914;47.382;8.168;2024-03-02T08:35:24;14.63;;;7.80;;
82304;SDS011;71914;47.382;8.168;2024-03-02T08:37:51;14.98;;;7.50;;
82304;SDS011;71914;47.382;8.168;2024-03-02T08:40:17;31.10;;;14.23;;
82304;SDS011;71914;47.382;8.168;2024-03-02T08:42:43;42.50;;;17.00;;
82304;SDS011;71914;47.382;8.168;2024-03-02T08:45:09;36.05;;;15.45;;
82304;SDS011;71914;47.382;8.168;2024-03-02T08:47:34;25.92;;;10.75;;
82304;SDS011;71914;47.382;8.168;2024-03-02T08:50:00;25.95;;;12.05;;
82304;SDS011;71914;47.382;8.168;2024-03-02T08:52:26;25.75;;;14.05;;
82304;SDS011;71914;47.382;8.168;2024-03-02T08:54:53;21.30;;;10.27;;
82304;SDS011;71914;47.382;8.168;2024-03-02T08:57:19;16.13;;;9.90;;
82304;SDS011;71914;47.382;8.168;2024-03-02T08:59:44;17.90;;;8.27;;
82304;SDS011;71914;47.382;8.168;2024-03-02T09:02:10;24.00;;;9.75;;
82304;SDS011;71914;47.382;8.168;2024-03-02T09:04:36;29.55;;;13.57;;
82304;SDS011;71914;47.382;8.168;2024-03-02T09:07:01;22.90;;;11.88;;
82304;SDS011;71914;47.382;8.168;2024-03-02T09:09:27;21.23;;;9.00;;
82304;SDS011;71914;47.382;8.168;2024-03-02T09:11:54;19.15;;;10.65;;
82304;SDS011;71914;47.382;8.168;2024-03-02T09:14:20;22.40;;;12.25;;
82304;SDS011;71914;47.382;8.168;2024-03-02T09:16:46;31.00;;;14.27;;
82304;SDS011;71914;47.382;8.168;2024-03-02T09:19:11;23.90;;;12.05;;
82304;SDS011;71914;47.382;8.168;2024-03-02T09:21:37;28.77;;;11.68;;
82304;SDS011;71914;47.382;8.168;2024-03-02T09:24:03;27.05;;;11.50;;
82304;SDS011;71914;47.382;8.168;2024-03-02T09:26:29;22.70;;;13.05;;
82304;SDS011;71914;47.382;8.168;2024-03-02T09:28:56;30.95;;;13.80;;
82304;SDS011;71914;47.382;8.168;2024-03-02T09:31:21;22.55;;;8.77;;
82304;SDS011;71914;47.382;8.168;2024-03-02T09:33:47;34.17;;;14.18;;
82304;SDS011;71914;47.382;8.168;2024-03-02T09:36:18;30.63;;;13.45;;
82304;SDS011;71914;47.382;8.168;2024-03-02T09:38:45;27.10;;;12.10;;
82304;SDS011;71914;47.382;8.168;2024-03-02T09:41:11;25.40;;;11.18;;
82304;SDS011;71914;47.382;8.168;2024-03-02T09:43:37;22.48;;;10.80;;
82304;SDS011;71914;47.382;8.168;2024-03-02T09:46:04;24.40;;;11.38;;
82304;SDS011;71914;47.382;8.168;2024-03-02T09:50:55;16.63;;;8.20;;
82304;SDS011;71914;47.382;8.168;2024-03-02T09:53:21;28.33;;;12.68;;
82304;SDS011;71914;47.382;8.168;2024-03-02T09:55:48;23.17;;;10.20;;
82304;SDS011;71914;47.382;8.168;2024-03-02T09:58:14;24.77;;;11.15;;
82304;SDS011;71914;47.382;8.168;2024-03-02T10:00:39;16.30;;;10.20;;
82304;SDS011;71914;47.382;8.168;2024-03-02T10:03:06;13.75;;;7.28;;
82304;SDS011;71914;47.382;8.168;2024-03-02T10:05:36;21.33;;;10.40;;
82304;SDS011;71914;47.382;8.168;2024-03-02T10:08:02;20.67;;;10.25;;
82304;SDS011;71914;47.382;8.168;2024-03-02T10:10:35;23.30;;;10.80;;
82304;SDS011;71914;47.382;8.168;2024-03-02T10:13:05;28.48;;;13.20;;
82304;SDS011;71914;47.382;8.168;2024-03-02T10:15:31;18.80;;;11.02;;
82304;SDS011;71914;47.382;8.168;2024-03-02T10:17:57;19.20;;;11.20;;
82304;SDS011;71914;47.382;8.168;2024-03-02T10:20:24;17.75;;;9.40;;
82304;SDS011;71914;47.382;8.168;2024-03-02T10:22:51;12.13;;;5.65;;
82304;SDS011;71914;47.382;8.168;2024-03-02T10:25:28;23.73;;;12.52;;
82304;SDS011;71914;47.382;8.168;2024-03-02T10:27:56;20.58;;;10.52;;
82304;SDS011;71914;47.382;8.168;2024-03-02T10:30:23;24.50;;;14.00;;
82304;SDS011;71914;47.382;8.168;2024-03-02T10:32:49;21.40;;;10.48;;
82304;SDS011;71914;47.382;8.168;2024-03-02T10:35:14;21.15;;;10.40;;
82304;SDS011;71914;47.382;8.168;2024-03-02T10:37:42;16.52;;;8.80;;
82304;SDS011;71914;47.382;8.168;2024-03-02T10:42:35;8.88;;;4.97;;
82304;SDS011;71914;47.382;8.168;2024-03-02T10:45:03;16.02;;;7.80;;
82304;SDS011;71914;47.382;8.168;2024-03-02T10:47:29;11.65;;;6.70;;
82304;SDS011;71914;47.382;8.168;2024-03-02T10:49:58;15.90;;;9.48;;
82304;SDS011;71914;47.382;8.168;2024-03-02T10:52:26;17.60;;;9.00;;
82304;SDS011;71914;47.382;8.168;2024-03-02T10:54:53;14.40;;;7.57;;
82304;SDS011;71914;47.382;8.168;2024-03-02T10:59:48;13.75;;;7.93;;
82304;SDS011;71914;47.382;8.168;2024-03-02T11:02:17;13.25;;;7.60;;
82304;SDS011;71914;47.382;8.168;2024-03-02T11:04:46;13.35;;;7.60;;
82304;SDS011;71914;47.382;8.168;2024-03-02T11:07:14;19.90;;;10.73;;
82304;SDS011;71914;47.382;8.168;2024-03-02T11:09:45;15.18;;;8.50;;
82304;SDS011;71914;47.382;8.168;2024-03-02T11:12:23;13.63;;;7.18;;
82304;SDS011;71914;47.382;8.168;2024-03-02T11:14:53;13.07;;;7.72;;
82304;SDS011;71914;47.382;8.168;2024-03-02T11:17:21;11.38;;;6.72;;
82304;SDS011;71914;47.382;8.168;2024-03-02T11:19:47;10.45;;;6.05;;
82304;SDS011;71914;47.382;8.168;2024-03-02T11:22:13;10.90;;;7.40;;
82304;SDS011;71914;47.382;8.168;2024-03-02T11:24:43;8.35;;;5.43;;
82304;SDS011;71914;47.382;8.168;2024-03-02T11:27:13;8.68;;;6.22;;
82304;SDS011;71914;47.382;8.168;2024-03-02T11:29:45;13.32;;;6.63;;
82304;SDS011;71914;47.382;8.168;2024-03-02T11:32:19;10.65;;;5.97;;
82304;SDS011;71914;47.382;8.168;2024-03-02T11:34:47;9.75;;;5.97;;
82304;SDS011;71914;47.382;8.168;2024-03-02T11:37:17;12.15;;;6.85;;
82304;SDS011;71914;47.382;8.168;2024-03-02T11:42:10;9.43;;;6.30;;
82304;SDS011;71914;47.382;8.168;2024-03-02T11:44:39;12.32;;;5.68;;
82304;SDS011;71914;47.382;8.168;2024-03-02T11:47:08;8.00;;;5.82;;
82304;SDS011;71914;47.382;8.168;2024-03-02T11:49:36;7.47;;;5.07;;
82304;SDS011;71914;47.382;8.168;2024-03-02T11:52:04;10.63;;;6.03;;
82304;SDS011;71914;47.382;8.168;2024-03-02T11:54:32;5.57;;;3.90;;
82304;SDS011;71914;47.382;8.168;2024-03-02T11:57:01;9.35;;;5.35;;
82304;SDS011;71914;47.382;8.168;2024-03-02T11:59:28;11.68;;;6.50;;
82304;SDS011;71914;47.382;8.168;2024-03-02T12:06:49;7.70;;;4.75;;
82304;SDS011;71914;47.382;8.168;2024-03-02T12:09:20;7.30;;;4.75;;
82304;SDS011;71914;47.382;8.168;2024-03-02T12:11:46;7.35;;;5.20;;
82304;SDS011;71914;47.382;8.168;2024-03-02T12:14:11;9.82;;;5.97;;
82304;SDS011;71914;47.382;8.168;2024-03-02T12:16:38;9.75;;;5.47;;
82304;SDS011;71914;47.382;8.168;2024-03-02T12:21:31;9.45;;;5.47;;
82304;SDS011;71914;47.382;8.168;2024-03-02T12:23:57;8.68;;;5.00;;
82304;SDS011;71914;47.382;8.168;2024-03-02T12:26:23;6.75;;;5.38;;
82304;SDS011;71914;47.382;8.168;2024-03-02T12:28:49;5.80;;;4.50;;
82304;SDS011;71914;47.382;8.168;2024-03-02T12:31:15;8.75;;;5.68;;
82304;SDS011;71914;47.382;8.168;2024-03-02T12:33:40;10.52;;;5.72;;
82304;SDS011;71914;47.382;8.168;2024-03-02T12:36:09;6.05;;;3.50;;
82304;SDS011;71914;47.382;8.168;2024-03-02T12:38:36;8.20;;;4.97;;
82304;SDS011;71914;47.382;8.168;2024-03-02T12:41:01;6.32;;;4.47;;
82304;SDS011;71914;47.382;8.168;2024-03-02T12:43:29;8.80;;;5.53;;
82304;SDS011;71914;47.382;8.168;2024-03-02T12:45:55;7.35;;;4.60;;
82304;SDS011;71914;47.382;8.168;2024-03-02T12:48:21;7.38;;;5.13;;
82304;SDS011;71914;47.382;8.168;2024-03-02T12:50:46;7.30;;;4.47;;
82304;SDS011;71914;47.382;8.168;2024-03-02T12:53:14;3.92;;;3.35;;
82304;SDS011;71914;47.382;8.168;2024-03-02T12:55:42;5.32;;;3.30;;
82304;SDS011;71914;47.382;8.168;2024-03-02T12:58:15;5.28;;;3.65;;
82304;SDS011;71914;47.382;8.168;2024-03-02T13:00:41;4.55;;;2.63;;
82304;SDS011;71914;47.382;8.168;2024-03-02T13:03:07;4.45;;;3.33;;
82304;SDS011;71914;47.382;8.168;2024-03-02T13:05:33;4.93;;;3.67;;
82304;SDS011;71914;47.382;8.168;2024-03-02T13:07:58;4.85;;;2.88;;
82304;SDS011;71914;47.382;8.168;2024-03-02T13:10:28;4.57;;;2.80;;
82304;SDS011;71914;47.382;8.168;2024-03-02T13:12:55;5.82;;;3.15;;
82304;SDS011;71914;47.382;8.168;2024-03-02T13:15:21;4.57;;;2.80;;
82304;SDS011;71914;47.382;8.168;2024-03-02T13:17:47;4.65;;;2.70;;
82304;SDS011;71914;47.382;8.168;2024-03-02T13:20:14;4.43;;;2.83;;
82304;SDS011;71914;47.382;8.168;2024-03-02T13:22:40;5.53;;;3.22;;
82304;SDS011;71914;47.382;8.168;2024-03-02T13:25:05;3.78;;;2.55;;
82304;SDS011;71914;47.382;8.168;2024-03-02T13:27:33;3.42;;;2.10;;
82304;SDS011;71914;47.382;8.168;2024-03-02T13:30:01;3.85;;;3.00;;
82304;SDS011;71914;47.382;8.168;2024-03-02T13:32:28;3.72;;;1.63;;
82304;SDS011;71914;47.382;8.168;2024-03-02T13:34:53;2.20;;;1.40;;
82304;SDS011;71914;47.382;8.168;2024-03-02T13:37:19;3.83;;;1.90;;
82304;SDS011;71914;47.382;8.168;2024-03-02T13:39:45;4.63;;;2.35;;
82304;SDS011;71914;47.382;8.168;2024-03-02T13:42:11;2.28;;;1.65;;
82304;SDS011;71914;47.382;8.168;2024-03-02T13:44:39;2.65;;;1.67;;
82304;SDS011;71914;47.382;8.168;2024-03-02T13:47:07;3.78;;;2.53;;
82304;SDS011;71914;47.382;8.168;2024-03-02T13:49:32;2.63;;;2.00;;
82304;SDS011;71914;47.382;8.168;2024-03-02T13:51:59;2.88;;;2.17;;
82304;SDS011;71914;47.382;8.168;2024-03-02T13:54:25;2.15;;;1.30;;
82304;SDS011;71914;47.382;8.168;2024-03-02T13:56:51;2.78;;;1.80;;
82304;SDS011;71914;47.382;8.168;2024-03-02T13:59:17;3.60;;;2.22;;
82304;SDS011;71914;47.382;8.168;2024-03-02T14:01:43;3.58;;;1.38;;
82304;SDS011;71914;47.382;8.168;2024-03-02T14:04:11;1.95;;;1.33;;
82304;SDS011;71914;47.382;8.168;2024-03-02T14:06:37;3.03;;;1.50;;
82304;SDS011;71914;47.382;8.168;2024-03-02T14:09:03;2.42;;;1.67;;
82304;SDS011;71914;47.382;8.168;2024-03-02T14:11:29;2.72;;;1.63;;
82304;SDS011;71914;47.382;8.168;2024-03-02T14:13:54;3.33;;;1.90;;
82304;SDS011;71914;47.382;8.168;2024-03-02T14:16:22;3.55;;;1.88;;
82304;SDS011;71914;47.382;8.168;2024-03-02T14:18:47;3.42;;;1.95;;
82304;SDS011;71914;47.382;8.168;2024-03-02T14:21:14;2.63;;;1.40;;
82304;SDS011;71914;47.382;8.168;2024-03-02T14:23:40;2.33;;;1.67;;
82304;SDS011;71914;47.382;8.168;2024-03-02T14:26:06;2.38;;;1.75;;
82304;SDS011;71914;47.382;8.168;2024-03-02T14:28:31;2.63;;;1.90;;
82304;SDS011;71914;47.382;8.168;2024-03-02T14:30:57;2.30;;;1.35;;
82304;SDS011;71914;47.382;8.168;2024-03-02T14:33:25;2.25;;;1.60;;
82304;SDS011;71914;47.382;8.168;2024-03-02T14:35:51;3.58;;;1.50;;
82304;SDS011;71914;47.382;8.168;2024-03-02T14:38:19;1.98;;;1.38;;
82304;SDS011;71914;47.382;8.168;2024-03-02T14:40:44;2.60;;;1.95;;
82304;SDS011;71914;47.382;8.168;2024-03-02T14:43:10;2.70;;;1.80;;
82304;SDS011;71914;47.382;8.168;2024-03-02T14:45:36;3.33;;;2.20;;
82304;SDS011;71914;47.382;8.168;2024-03-02T14:48:02;2.67;;;1.92;;
82304;SDS011;71914;47.382;8.168;2024-03-02T14:50:28;3.53;;;1.95;;
82304;SDS011;71914;47.382;8.168;2024-03-02T14:52:54;3.03;;;1.40;;
82304;SDS011;71914;47.382;8.168;2024-03-02T14:55:24;2.70;;;1.77;;
82304;SDS011;71914;47.382;8.168;2024-03-02T14:57:49;4.40;;;2.17;;
82304;SDS011;71914;47.382;8.168;2024-03-02T15:00:15;3.20;;;1.60;;
82304;SDS011;71914;47.382;8.168;2024-03-02T15:02:42;4.05;;;1.60;;
82304;SDS011;71914;47.382;8.168;2024-03-02T15:05:07;2.63;;;1.77;;
82304;SDS011;71914;47.382;8.168;2024-03-02T15:07:33;4.55;;;2.20;;